sensor_id;sensor_type;location;lat;lon;timestamp;P1;durP1;ratioP1;P2;durP2;ratioP2
6259;SDS011;3163;51.516;4.000;2022-10-04T00:00:08;1.52;;;1.38;;
6259;SDS011;3163;51.516;4.000;2022-10-04T00:02:34;1.50;;;1.20;;
6259;SDS011;3163;51.516;4.000;2022-10-04T00:05:04;1.20;;;1.10;;
6259;SDS011;3163;51.516;4.000;2022-10-04T00:07:33;1.53;;;1.43;;
6259;SDS011;3163;51.516;4.000;2022-10-04T00:10:01;1.33;;;1.10;;
6259;SDS011;3163;51.516;4.000;2022-10-04T00:14:55;2.83;;;1.77;;
6259;SDS011;3163;51.516;4.000;2022-10-04T00:17:22;1.63;;;1.53;;
6259;SDS011;3163;51.516;4.000;2022-10-04T00:19:50;1.57;;;1.43;;
6259;SDS011;3163;51.516;4.000;2022-10-04T00:22:17;2.60;;;1.70;;
6259;SDS011;3163;51.516;4.000;2022-10-04T00:30:33;1.20;;;1.10;;
6259;SDS011;3163;51.516;4.000;2022-10-04T00:33:01;1.77;;;1.40;;
6259;SDS011;3163;51.516;4.000;2022-10-04T00:37:57;1.40;;;1.30;;
6259;SDS011;3163;51.516;4.000;2022-10-04T00:40:25;2.73;;;1.47;;
6259;SDS011;3163;51.516;4.000;2022-10-04T00:45:26;2.10;;;1.35;;
6259;SDS011;3163;51.516;4.000;2022-10-04T00:50:27;3.33;;;1.57;;
6259;SDS011;3163;51.516;4.000;2022-10-04T00:52:55;1.33;;;1.20;;
6259;SDS011;3163;51.516;4.000;2022-10-04T00:55:28;2.50;;;1.30;;
6259;SDS011;3163;51.516;4.000;2022-10-04T00:57:58;1.90;;;1.60;;
6259;SDS011;3163;51.516;4.000;2022-10-04T01:00:25;2.33;;;1.33;;
6259;SDS011;3163;51.516;4.000;2022-10-04T01:02:53;1.50;;;1.40;;
6259;SDS011;3163;51.516;4.000;2022-10-04T01:05:24;2.00;;;1.37;;
6259;SDS011;3163;51.516;4.000;2022-10-04T01:07:54;1.70;;;1.23;;
6259;SDS011;3163;51.516;4.000;2022-10-04T01:10:26;3.73;;;1.20;;
6259;SDS011;3163;51.516;4.000;2022-10-04T01:12:59;1.60;;;1.50;;
6259;SDS011;3163;51.516;4.000;2022-10-04T01:15:32;1.90;;;1.20;;
6259;SDS011;3163;51.516;4.000;2022-10-04T01:20:37;2.13;;;1.50;;
6259;SDS011;3163;51.516;4.000;2022-10-04T01:23:03;1.40;;;1.30;;
6259;SDS011;3163;51.516;4.000;2022-10-04T01:25:42;2.60;;;2.27;;
6259;SDS011;3163;51.516;4.000;2022-10-04T01:28:09;1.67;;;1.50;;
6259;SDS011;3163;51.516;4.000;2022-10-04T01:30:35;1.10;;;1.10;;
6259;SDS011;3163;51.516;4.000;2022-10-04T01:33:01;1.43;;;1.40;;
6259;SDS011;3163;51.516;4.000;2022-10-04T01:35:27;3.63;;;1.40;;
6259;SDS011;3163;51.516;4.000;2022-10-04T01:37:53;1.77;;;1.40;;
6259;SDS011;3163;51.516;4.000;2022-10-04T01:40:19;1.40;;;1.30;;
6259;SDS011;3163;51.516;4.000;2022-10-04T01:42:52;2.27;;;1.40;;
6259;SDS011;3163;51.516;4.000;2022-10-04T01:45:26;1.50;;;1.40;;
6259;SDS011;3163;51.516;4.000;2022-10-04T01:47:55;3.40;;;1.43;;
6259;SDS011;3163;51.516;4.000;2022-10-04T01:50:23;1.70;;;1.60;;
6259;SDS011;3163;51.516;4.000;2022-10-04T01:52:52;3.77;;;1.87;;
6259;SDS011;3163;51.516;4.000;2022-10-04T01:55:22;2.07;;;1.50;;
6259;SDS011;3163;51.516;4.000;2022-10-04T01:57:56;3.57;;;1.60;;
6259;SDS011;3163;51.516;4.000;2022-10-04T02:00:24;1.77;;;1.43;;
6259;SDS011;3163;51.516;4.000;2022-10-04T02:03:00;2.97;;;1.30;;
6259;SDS011;3163;51.516;4.000;2022-10-04T02:05:35;1.47;;;1.37;;
6259;SDS011;3163;51.516;4.000;2022-10-04T02:08:04;3.80;;;1.47;;
6259;SDS011;3163;51.516;4.000;2022-10-04T02:10:31;4.10;;;2.70;;
6259;SDS011;3163;51.516;4.000;2022-10-04T02:13:00;1.70;;;1.60;;
6259;SDS011;3163;51.516;4.000;2022-10-04T02:15:26;1.40;;;1.30;;
6259;SDS011;3163;51.516;4.000;2022-10-04T02:17:52;1.60;;;1.50;;
6259;SDS011;3163;51.516;4.000;2022-10-04T02:20:24;2.83;;;1.60;;
6259;SDS011;3163;51.516;4.000;2022-10-04T02:22:52;2.27;;;2.00;;
6259;SDS011;3163;51.516;4.000;2022-10-04T02:25:20;2.30;;;1.50;;
6259;SDS011;3163;51.516;4.000;2022-10-04T02:27:46;1.60;;;1.50;;
6259;SDS011;3163;51.516;4.000;2022-10-04T02:30:17;1.63;;;1.53;;
6259;SDS011;3163;51.516;4.000;2022-10-04T02:32:44;1.87;;;1.27;;
6259;SDS011;3163;51.516;4.000;2022-10-04T02:35:45;2.43;;;2.23;;
6259;SDS011;3163;51.516;4.000;2022-10-04T02:38:12;3.30;;;1.80;;
6259;SDS011;3163;51.516;4.000;2022-10-04T02:40:43;1.63;;;1.50;;
6259;SDS011;3163;51.516;4.000;2022-10-04T02:43:19;3.00;;;1.93;;
6259;SDS011;3163;51.516;4.000;2022-10-04T02:45:52;2.77;;;2.53;;
6259;SDS011;3163;51.516;4.000;2022-10-04T02:48:31;3.07;;;1.70;;
6259;SDS011;3163;51.516;4.000;2022-10-04T02:51:00;3.30;;;1.90;;
6259;SDS011;3163;51.516;4.000;2022-10-04T02:56:15;3.77;;;2.37;;
6259;SDS011;3163;51.516;4.000;2022-10-04T02:58:42;4.13;;;2.25;;
6259;SDS011;3163;51.516;4.000;2022-10-04T03:01:16;2.77;;;1.70;;
6259;SDS011;3163;51.516;4.000;2022-10-04T03:03:49;2.87;;;1.90;;
6259;SDS011;3163;51.516;4.000;2022-10-04T03:06:16;3.85;;;2.40;;
6259;SDS011;3163;51.516;4.000;2022-10-04T03:11:10;2.80;;;1.67;;
6259;SDS011;3163;51.516;4.000;2022-10-04T03:13:38;3.37;;;1.97;;
6259;SDS011;3163;51.516;4.000;2022-10-04T03:16:06;4.27;;;1.73;;
6259;SDS011;3163;51.516;4.000;2022-10-04T03:18:33;2.07;;;1.87;;
6259;SDS011;3163;51.516;4.000;2022-10-04T03:21:09;1.93;;;1.77;;
6259;SDS011;3163;51.516;4.000;2022-10-04T03:23:38;2.97;;;1.70;;
6259;SDS011;3163;51.516;4.000;2022-10-04T03:28:40;4.10;;;2.00;;
6259;SDS011;3163;51.516;4.000;2022-10-04T03:31:06;1.97;;;1.80;;
6259;SDS011;3163;51.516;4.000;2022-10-04T03:33:32;2.37;;;1.67;;
6259;SDS011;3163;51.516;4.000;2022-10-04T03:35:58;3.23;;;1.67;;
6259;SDS011;3163;51.516;4.000;2022-10-04T03:38:25;3.17;;;1.60;;
6259;SDS011;3163;51.516;4.000;2022-10-04T03:40:55;2.27;;;1.57;;
6259;SDS011;3163;51.516;4.000;2022-10-04T03:43:24;3.00;;;2.27;;
6259;SDS011;3163;51.516;4.000;2022-10-04T03:45:51;3.05;;;2.08;;
6259;SDS011;3163;51.516;4.000;2022-10-04T03:48:21;3.57;;;1.67;;
6259;SDS011;3163;51.516;4.000;2022-10-04T03:50:50;2.70;;;2.17;;
6259;SDS011;3163;51.516;4.000;2022-10-04T03:53:27;5.70;;;2.50;;
6259;SDS011;3163;51.516;4.000;2022-10-04T03:55:54;4.43;;;2.43;;
6259;SDS011;3163;51.516;4.000;2022-10-04T03:58:20;2.97;;;2.13;;
6259;SDS011;3163;51.516;4.000;2022-10-04T04:03:35;4.47;;;2.77;;
6259;SDS011;3163;51.516;4.000;2022-10-04T04:06:03;2.47;;;1.60;;
6259;SDS011;3163;51.516;4.000;2022-10-04T04:08:31;3.27;;;2.17;;
6259;SDS011;3163;51.516;4.000;2022-10-04T04:10:58;3.53;;;1.90;;
6259;SDS011;3163;51.516;4.000;2022-10-04T04:13:43;6.87;;;2.60;;
6259;SDS011;3163;51.516;4.000;2022-10-04T04:16:10;2.90;;;2.03;;
6259;SDS011;3163;51.516;4.000;2022-10-04T04:18:37;3.60;;;2.17;;
6259;SDS011;3163;51.516;4.000;2022-10-04T04:21:06;2.90;;;2.17;;
6259;SDS011;3163;51.516;4.000;2022-10-04T04:23:36;3.17;;;1.90;;
6259;SDS011;3163;51.516;4.000;2022-10-04T04:26:12;1.90;;;1.67;;
6259;SDS011;3163;51.516;4.000;2022-10-04T04:31:42;2.40;;;2.17;;
6259;SDS011;3163;51.516;4.000;2022-10-04T04:34:15;3.13;;;1.87;;
6259;SDS011;3163;51.516;4.000;2022-10-04T04:36:41;2.10;;;1.73;;
6259;SDS011;3163;51.516;4.000;2022-10-04T04:39:15;1.93;;;1.77;;
6259;SDS011;3163;51.516;4.000;2022-10-04T04:42:00;2.13;;;1.93;;
6259;SDS011;3163;51.516;4.000;2022-10-04T04:44:27;2.17;;;1.73;;
6259;SDS011;3163;51.516;4.000;2022-10-04T04:46:53;2.27;;;1.53;;
6259;SDS011;3163;51.516;4.000;2022-10-04T04:49:20;2.17;;;1.73;;
6259;SDS011;3163;51.516;4.000;2022-10-04T04:51:48;2.77;;;2.10;;
6259;SDS011;3163;51.516;4.000;2022-10-04T04:54:16;2.40;;;1.60;;
6259;SDS011;3163;51.516;4.000;2022-10-04T04:56:42;2.13;;;1.80;;
6259;SDS011;3163;51.516;4.000;2022-10-04T04:59:09;1.57;;;1.47;;
6259;SDS011;3163;51.516;4.000;2022-10-04T05:01:46;4.60;;;1.70;;
6259;SDS011;3163;51.516;4.000;2022-10-04T05:04:15;1.87;;;1.77;;
6259;SDS011;3163;51.516;4.000;2022-10-04T05:06:45;2.37;;;1.90;;
6259;SDS011;3163;51.516;4.000;2022-10-04T05:09:30;2.03;;;1.90;;
6259;SDS011;3163;51.516;4.000;2022-10-04T05:12:19;3.20;;;1.83;;
6259;SDS011;3163;51.516;4.000;2022-10-04T05:14:44;2.20;;;2.00;;
6259;SDS011;3163;51.516;4.000;2022-10-04T05:17:31;2.30;;;1.83;;
6259;SDS011;3163;51.516;4.000;2022-10-04T05:19:58;2.20;;;2.00;;
6259;SDS011;3163;51.516;4.000;2022-10-04T05:22:25;2.00;;;1.10;;
6259;SDS011;3163;51.516;4.000;2022-10-04T05:24:52;2.97;;;1.50;;
6259;SDS011;3163;51.516;4.000;2022-10-04T05:27:28;2.78;;;1.65;;
6259;SDS011;3163;51.516;4.000;2022-10-04T05:35:16;1.53;;;1.43;;
6259;SDS011;3163;51.516;4.000;2022-10-04T05:42:47;2.10;;;2.00;;
6259;SDS011;3163;51.516;4.000;2022-10-04T05:45:19;1.93;;;1.83;;
6259;SDS011;3163;51.516;4.000;2022-10-04T05:47:46;3.13;;;2.20;;
6259;SDS011;3163;51.516;4.000;2022-10-04T05:50:21;2.10;;;1.87;;
6259;SDS011;3163;51.516;4.000;2022-10-04T05:52:49;3.57;;;1.53;;
6259;SDS011;3163;51.516;4.000;2022-10-04T05:58:25;1.97;;;1.77;;
6259;SDS011;3163;51.516;4.000;2022-10-04T06:05:54;2.70;;;1.77;;
6259;SDS011;3163;51.516;4.000;2022-10-04T06:08:23;3.00;;;1.90;;
6259;SDS011;3163;51.516;4.000;2022-10-04T06:11:08;2.30;;;1.27;;
6259;SDS011;3163;51.516;4.000;2022-10-04T06:16:15;2.90;;;1.80;;
6259;SDS011;3163;51.516;4.000;2022-10-04T06:23:44;1.50;;;1.40;;
6259;SDS011;3163;51.516;4.000;2022-10-04T06:26:13;4.47;;;2.00;;
6259;SDS011;3163;51.516;4.000;2022-10-04T06:28:44;1.80;;;1.70;;
6259;SDS011;3163;51.516;4.000;2022-10-04T06:33:53;2.10;;;1.63;;
6259;SDS011;3163;51.516;4.000;2022-10-04T06:39:43;2.83;;;1.70;;
6259;SDS011;3163;51.516;4.000;2022-10-04T06:45:10;3.17;;;2.43;;
6259;SDS011;3163;51.516;4.000;2022-10-04T06:47:52;2.00;;;1.77;;
6259;SDS011;3163;51.516;4.000;2022-10-04T06:55:44;3.33;;;2.00;;
6259;SDS011;3163;51.516;4.000;2022-10-04T07:01:01;8.30;;;4.70;;
6259;SDS011;3163;51.516;4.000;2022-10-04T07:03:45;9.80;;;4.90;;
6259;SDS011;3163;51.516;4.000;2022-10-04T07:06:12;8.88;;;6.80;;
6259;SDS011;3163;51.516;4.000;2022-10-04T07:08:41;7.90;;;5.80;;
6259;SDS011;3163;51.516;4.000;2022-10-04T07:11:19;8.10;;;4.67;;
6259;SDS011;3163;51.516;4.000;2022-10-04T07:21:32;5.50;;;3.17;;
6259;SDS011;3163;51.516;4.000;2022-10-04T07:24:00;3.53;;;3.23;;
6259;SDS011;3163;51.516;4.000;2022-10-04T07:26:29;5.97;;;3.10;;
6259;SDS011;3163;51.516;4.000;2022-10-04T07:29:00;4.90;;;2.67;;
6259;SDS011;3163;51.516;4.000;2022-10-04T07:31:45;3.43;;;2.73;;
6259;SDS011;3163;51.516;4.000;2022-10-04T07:34:23;4.67;;;3.07;;
6259;SDS011;3163;51.516;4.000;2022-10-04T07:36:52;3.03;;;2.60;;
6259;SDS011;3163;51.516;4.000;2022-10-04T07:41:54;3.77;;;2.90;;
6259;SDS011;3163;51.516;4.000;2022-10-04T07:44:30;2.97;;;2.50;;
6259;SDS011;3163;51.516;4.000;2022-10-04T07:49:27;3.60;;;2.50;;
6259;SDS011;3163;51.516;4.000;2022-10-04T07:54:46;3.13;;;2.70;;
6259;SDS011;3163;51.516;4.000;2022-10-04T08:02:37;4.23;;;3.00;;
6259;SDS011;3163;51.516;4.000;2022-10-04T08:10:32;3.37;;;2.47;;
6259;SDS011;3163;51.516;4.000;2022-10-04T08:18:07;4.47;;;2.73;;
6259;SDS011;3163;51.516;4.000;2022-10-04T08:20:55;3.00;;;2.30;;
6259;SDS011;3163;51.516;4.000;2022-10-04T08:28:36;2.73;;;2.33;;
6259;SDS011;3163;51.516;4.000;2022-10-04T08:45:48;3.83;;;2.80;;
6259;SDS011;3163;51.516;4.000;2022-10-04T08:48:12;3.87;;;2.20;;
6259;SDS011;3163;51.516;4.000;2022-10-04T08:51:01;6.20;;;2.23;;
6259;SDS011;3163;51.516;4.000;2022-10-04T09:13:58;4.57;;;2.90;;
6259;SDS011;3163;51.516;4.000;2022-10-04T09:34:48;6.82;;;4.18;;
6259;SDS011;3163;51.516;4.000;2022-10-04T09:47:52;8.70;;;4.13;;
6259;SDS011;3163;51.516;4.000;2022-10-04T09:58:30;9.70;;;3.60;;
6259;SDS011;3163;51.516;4.000;2022-10-04T10:01:01;5.07;;;2.97;;
6259;SDS011;3163;51.516;4.000;2022-10-04T10:11:34;4.80;;;3.50;;
6259;SDS011;3163;51.516;4.000;2022-10-04T10:19:49;8.03;;;3.00;;
6259;SDS011;3163;51.516;4.000;2022-10-04T10:25:04;3.43;;;2.70;;
6259;SDS011;3163;51.516;4.000;2022-10-04T10:45:41;7.20;;;2.90;;
6259;SDS011;3163;51.516;4.000;2022-10-04T10:48:13;6.83;;;2.83;;
6259;SDS011;3163;51.516;4.000;2022-10-04T10:50:48;4.77;;;2.43;;
6259;SDS011;3163;51.516;4.000;2022-10-04T10:53:34;6.60;;;3.10;;
6259;SDS011;3163;51.516;4.000;2022-10-04T10:58:59;4.27;;;2.47;;
6259;SDS011;3163;51.516;4.000;2022-10-04T11:01:44;4.10;;;2.70;;
6259;SDS011;3163;51.516;4.000;2022-10-04T11:14:41;4.77;;;2.70;;
6259;SDS011;3163;51.516;4.000;2022-10-04T11:20:06;2.37;;;2.23;;
6259;SDS011;3163;51.516;4.000;2022-10-04T11:33:27;5.82;;;2.28;;
6259;SDS011;3163;51.516;4.000;2022-10-04T11:36:00;10.30;;;2.93;;
6259;SDS011;3163;51.516;4.000;2022-10-04T11:41:26;3.40;;;2.20;;
6259;SDS011;3163;51.516;4.000;2022-10-04T11:49:27;4.43;;;2.42;;
6259;SDS011;3163;51.516;4.000;2022-10-04T11:52:23;7.40;;;2.42;;
6259;SDS011;3163;51.516;4.000;2022-10-04T11:55:07;2.58;;;2.22;;
6259;SDS011;3163;51.516;4.000;2022-10-04T11:57:42;4.68;;;2.50;;
6259;SDS011;3163;51.516;4.000;2022-10-04T12:27:06;2.20;;;1.67;;
6259;SDS011;3163;51.516;4.000;2022-10-04T12:32:48;4.30;;;2.47;;
6259;SDS011;3163;51.516;4.000;2022-10-04T12:45:27;3.85;;;1.88;;
6259;SDS011;3163;51.516;4.000;2022-10-04T12:48:14;1.80;;;1.70;;
6259;SDS011;3163;51.516;4.000;2022-10-04T12:50:50;5.10;;;1.40;;
6259;SDS011;3163;51.516;4.000;2022-10-04T12:56:34;2.13;;;1.70;;
6259;SDS011;3163;51.516;4.000;2022-10-04T13:06:28;1.80;;;1.70;;
6259;SDS011;3163;51.516;4.000;2022-10-04T13:24:49;5.28;;;1.88;;
6259;SDS011;3163;51.516;4.000;2022-10-04T13:27:30;2.83;;;1.67;;
6259;SDS011;3163;51.516;4.000;2022-10-04T13:32:31;2.47;;;1.58;;
6259;SDS011;3163;51.516;4.000;2022-10-04T13:48:27;3.17;;;1.88;;
6259;SDS011;3163;51.516;4.000;2022-10-04T13:53:43;1.92;;;1.67;;
6259;SDS011;3163;51.516;4.000;2022-10-04T14:12:18;4.90;;;1.60;;
6259;SDS011;3163;51.516;4.000;2022-10-04T14:17:38;1.50;;;1.40;;
6259;SDS011;3163;51.516;4.000;2022-10-04T14:30:08;1.53;;;1.43;;
6259;SDS011;3163;51.516;4.000;2022-10-04T14:33:02;2.97;;;1.60;;
6259;SDS011;3163;51.516;4.000;2022-10-04T14:35:47;2.47;;;2.10;;
6259;SDS011;3163;51.516;4.000;2022-10-04T14:38:25;1.35;;;1.25;;
6259;SDS011;3163;51.516;4.000;2022-10-04T14:46:22;2.15;;;1.55;;
6259;SDS011;3163;51.516;4.000;2022-10-04T14:51:24;1.87;;;1.77;;
6259;SDS011;3163;51.516;4.000;2022-10-04T14:54:07;1.45;;;1.35;;
6259;SDS011;3163;51.516;4.000;2022-10-04T15:01:40;2.13;;;1.83;;
6259;SDS011;3163;51.516;4.000;2022-10-04T15:04:12;4.20;;;1.60;;
6259;SDS011;3163;51.516;4.000;2022-10-04T15:06:44;1.30;;;1.20;;
6259;SDS011;3163;51.516;4.000;2022-10-04T15:09:29;2.83;;;1.17;;
6259;SDS011;3163;51.516;4.000;2022-10-04T15:11:59;1.90;;;1.23;;
6259;SDS011;3163;51.516;4.000;2022-10-04T15:14:35;1.40;;;1.30;;
6259;SDS011;3163;51.516;4.000;2022-10-04T15:17:04;3.92;;;1.50;;
6259;SDS011;3163;51.516;4.000;2022-10-04T15:24:47;1.20;;;1.20;;
6259;SDS011;3163;51.516;4.000;2022-10-04T15:32:38;2.33;;;1.40;;
6259;SDS011;3163;51.516;4.000;2022-10-04T15:45:35;1.60;;;1.30;;
6259;SDS011;3163;51.516;4.000;2022-10-04T15:48:22;1.30;;;1.20;;
6259;SDS011;3163;51.516;4.000;2022-10-04T15:51:02;2.43;;;1.40;;
6259;SDS011;3163;51.516;4.000;2022-10-04T15:53:39;1.43;;;1.33;;
6259;SDS011;3163;51.516;4.000;2022-10-04T16:06:41;4.82;;;2.53;;
6259;SDS011;3163;51.516;4.000;2022-10-04T16:09:18;6.47;;;2.20;;
6259;SDS011;3163;51.516;4.000;2022-10-04T16:21:51;3.80;;;1.80;;
6259;SDS011;3163;51.516;4.000;2022-10-04T16:32:19;1.40;;;1.30;;
6259;SDS011;3163;51.516;4.000;2022-10-04T16:37:27;2.43;;;1.50;;
6259;SDS011;3163;51.516;4.000;2022-10-04T16:39:56;3.13;;;1.40;;
6259;SDS011;3163;51.516;4.000;2022-10-04T16:50:33;2.47;;;1.67;;
6259;SDS011;3163;51.516;4.000;2022-10-04T16:55:48;1.40;;;1.30;;
6259;SDS011;3163;51.516;4.000;2022-10-04T16:58:34;2.58;;;1.77;;
6259;SDS011;3163;51.516;4.000;2022-10-04T17:12:10;1.53;;;1.43;;
6259;SDS011;3163;51.516;4.000;2022-10-04T17:22:49;1.70;;;1.47;;
6259;SDS011;3163;51.516;4.000;2022-10-04T17:27:46;2.93;;;1.40;;
6259;SDS011;3163;51.516;4.000;2022-10-04T17:32:47;2.23;;;1.50;;
6259;SDS011;3163;51.516;4.000;2022-10-04T17:38:04;2.43;;;1.70;;
6259;SDS011;3163;51.516;4.000;2022-10-04T17:45:57;2.03;;;1.83;;
6259;SDS011;3163;51.516;4.000;2022-10-04T17:54:22;1.97;;;1.73;;
6259;SDS011;3163;51.516;4.000;2022-10-04T17:57:10;1.50;;;1.40;;
6259;SDS011;3163;51.516;4.000;2022-10-04T17:59:43;1.60;;;1.50;;
6259;SDS011;3163;51.516;4.000;2022-10-04T18:05:02;3.63;;;1.40;;
6259;SDS011;3163;51.516;4.000;2022-10-04T18:07:40;3.20;;;1.97;;
6259;SDS011;3163;51.516;4.000;2022-10-04T18:10:28;1.90;;;1.23;;
6259;SDS011;3163;51.516;4.000;2022-10-04T18:15:33;2.10;;;1.90;;
6259;SDS011;3163;51.516;4.000;2022-10-04T18:18:20;2.08;;;1.95;;
6259;SDS011;3163;51.516;4.000;2022-10-04T18:23:23;2.27;;;1.70;;
6259;SDS011;3163;51.516;4.000;2022-10-04T18:25:52;1.60;;;1.50;;
6259;SDS011;3163;51.516;4.000;2022-10-04T18:28:19;1.73;;;1.13;;
6259;SDS011;3163;51.516;4.000;2022-10-04T18:33:18;2.97;;;1.30;;
6259;SDS011;3163;51.516;4.000;2022-10-04T18:35:52;1.93;;;1.47;;
6259;SDS011;3163;51.516;4.000;2022-10-04T18:38:28;2.83;;;2.10;;
6259;SDS011;3163;51.516;4.000;2022-10-04T18:41:36;2.37;;;1.40;;
6259;SDS011;3163;51.516;4.000;2022-10-04T18:56:45;1.27;;;1.23;;
6259;SDS011;3163;51.516;4.000;2022-10-04T18:59:27;1.20;;;1.20;;
6259;SDS011;3163;51.516;4.000;2022-10-04T19:02:24;1.85;;;1.75;;
6259;SDS011;3163;51.516;4.000;2022-10-04T19:10:05;1.60;;;1.50;;
6259;SDS011;3163;51.516;4.000;2022-10-04T19:12:36;1.60;;;1.50;;
6259;SDS011;3163;51.516;4.000;2022-10-04T19:25:11;2.03;;;1.40;;
6259;SDS011;3163;51.516;4.000;2022-10-04T19:27:46;1.10;;;1.10;;
6259;SDS011;3163;51.516;4.000;2022-10-04T19:43:03;1.53;;;1.43;;
6259;SDS011;3163;51.516;4.000;2022-10-04T19:45:42;1.50;;;1.40;;
6259;SDS011;3163;51.516;4.000;2022-10-04T19:48:13;1.00;;;1.00;;
6259;SDS011;3163;51.516;4.000;2022-10-04T19:50:42;1.50;;;1.30;;
6259;SDS011;3163;51.516;4.000;2022-10-04T20:03:36;1.67;;;1.30;;
6259;SDS011;3163;51.516;4.000;2022-10-04T20:06:02;1.60;;;1.50;;
6259;SDS011;3163;51.516;4.000;2022-10-04T20:11:14;1.50;;;1.40;;
6259;SDS011;3163;51.516;4.000;2022-10-04T20:13:43;1.23;;;1.10;;
6259;SDS011;3163;51.516;4.000;2022-10-04T20:16:09;5.27;;;1.80;;
6259;SDS011;3163;51.516;4.000;2022-10-04T20:18:49;1.37;;;1.27;;
6259;SDS011;3163;51.516;4.000;2022-10-04T20:21:22;1.23;;;1.17;;
6259;SDS011;3163;51.516;4.000;2022-10-04T20:23:49;2.27;;;1.33;;
6259;SDS011;3163;51.516;4.000;2022-10-04T20:26:38;1.03;;;1.03;;
6259;SDS011;3163;51.516;4.000;2022-10-04T20:32:09;1.70;;;1.50;;
6259;SDS011;3163;51.516;4.000;2022-10-04T20:37:02;1.40;;;1.30;;
6259;SDS011;3163;51.516;4.000;2022-10-04T20:42:10;2.63;;;1.50;;
6259;SDS011;3163;51.516;4.000;2022-10-04T20:44:56;1.90;;;1.40;;
6259;SDS011;3163;51.516;4.000;2022-10-04T20:49:49;1.23;;;1.17;;
6259;SDS011;3163;51.516;4.000;2022-10-04T20:52:15;1.20;;;1.10;;
6259;SDS011;3163;51.516;4.000;2022-10-04T20:54:48;1.20;;;1.20;;
6259;SDS011;3163;51.516;4.000;2022-10-04T20:57:16;1.13;;;1.03;;
6259;SDS011;3163;51.516;4.000;2022-10-04T20:59:42;1.23;;;1.17;;
6259;SDS011;3163;51.516;4.000;2022-10-04T21:02:12;1.10;;;1.00;;
6259;SDS011;3163;51.516;4.000;2022-10-04T21:04:39;1.40;;;1.33;;
6259;SDS011;3163;51.516;4.000;2022-10-04T21:07:08;1.37;;;1.20;;
6259;SDS011;3163;51.516;4.000;2022-10-04T21:09:38;1.57;;;1.30;;
6259;SDS011;3163;51.516;4.000;2022-10-04T21:12:04;1.40;;;1.20;;
6259;SDS011;3163;51.516;4.000;2022-10-04T21:14:31;1.63;;;1.20;;
6259;SDS011;3163;51.516;4.000;2022-10-04T21:16:58;1.03;;;1.00;;
6259;SDS011;3163;51.516;4.000;2022-10-04T21:22:00;1.80;;;1.30;;
6259;SDS011;3163;51.516;4.000;2022-10-04T21:26:56;1.00;;;1.00;;
6259;SDS011;3163;51.516;4.000;2022-10-04T21:29:22;1.17;;;1.07;;
6259;SDS011;3163;51.516;4.000;2022-10-04T21:31:48;0.90;;;0.90;;
6259;SDS011;3163;51.516;4.000;2022-10-04T21:34:14;1.33;;;1.00;;
6259;SDS011;3163;51.516;4.000;2022-10-04T21:36:40;1.10;;;1.10;;
6259;SDS011;3163;51.516;4.000;2022-10-04T21:39:06;1.27;;;1.17;;
6259;SDS011;3163;51.516;4.000;2022-10-04T21:41:32;2.77;;;1.30;;
6259;SDS011;3163;51.516;4.000;2022-10-04T21:43:58;3.47;;;1.00;;
6259;SDS011;3163;51.516;4.000;2022-10-04T21:46:24;1.67;;;1.17;;
6259;SDS011;3163;51.516;4.000;2022-10-04T21:48:50;2.83;;;0.93;;
6259;SDS011;3163;51.516;4.000;2022-10-04T21:51:16;1.13;;;1.03;;
6259;SDS011;3163;51.516;4.000;2022-10-04T21:53:41;1.10;;;1.00;;
6259;SDS011;3163;51.516;4.000;2022-10-04T21:56:08;0.80;;;0.80;;
6259;SDS011;3163;51.516;4.000;2022-10-04T21:58:33;1.40;;;1.20;;
6259;SDS011;3163;51.516;4.000;2022-10-04T22:00:59;1.10;;;1.10;;
6259;SDS011;3163;51.516;4.000;2022-10-04T22:03:25;2.63;;;1.03;;
6259;SDS011;3163;51.516;4.000;2022-10-04T22:05:51;0.80;;;0.80;;
6259;SDS011;3163;51.516;4.000;2022-10-04T22:08:17;1.00;;;0.90;;
6259;SDS011;3163;51.516;4.000;2022-10-04T22:10:43;3.77;;;1.00;;
6259;SDS011;3163;51.516;4.000;2022-10-04T22:13:11;1.37;;;0.70;;
6259;SDS011;3163;51.516;4.000;2022-10-04T22:15:37;1.70;;;0.87;;
6259;SDS011;3163;51.516;4.000;2022-10-04T22:18:03;1.70;;;0.70;;
6259;SDS011;3163;51.516;4.000;2022-10-04T22:20:29;1.17;;;0.80;;
6259;SDS011;3163;51.516;4.000;2022-10-04T22:22:55;1.20;;;1.10;;
6259;SDS011;3163;51.516;4.000;2022-10-04T22:25:23;0.80;;;0.80;;
6259;SDS011;3163;51.516;4.000;2022-10-04T22:27:50;0.90;;;0.90;;
6259;SDS011;3163;51.516;4.000;2022-10-04T22:30:22;0.90;;;0.90;;
6259;SDS011;3163;51.516;4.000;2022-10-04T22:32:48;1.27;;;1.00;;
6259;SDS011;3163;51.516;4.000;2022-10-04T22:35:18;0.60;;;0.60;;
6259;SDS011;3163;51.516;4.000;2022-10-04T22:37:45;1.47;;;0.80;;
6259;SDS011;3163;51.516;4.000;2022-10-04T22:40:15;1.30;;;0.80;;
6259;SDS011;3163;51.516;4.000;2022-10-04T22:42:41;1.20;;;1.10;;
6259;SDS011;3163;51.516;4.000;2022-10-04T22:45:10;1.33;;;0.90;;
6259;SDS011;3163;51.516;4.000;2022-10-04T22:47:40;1.23;;;0.80;;
6259;SDS011;3163;51.516;4.000;2022-10-04T22:50:10;1.00;;;1.00;;
6259;SDS011;3163;51.516;4.000;2022-10-04T22:52:41;0.70;;;0.70;;
6259;SDS011;3163;51.516;4.000;2022-10-04T22:55:07;1.47;;;0.83;;
6259;SDS011;3163;51.516;4.000;2022-10-04T22:57:34;0.83;;;0.83;;
6259;SDS011;3163;51.516;4.000;2022-10-04T23:00:00;1.00;;;0.90;;
6259;SDS011;3163;51.516;4.000;2022-10-04T23:02:28;1.03;;;0.93;;
6259;SDS011;3163;51.516;4.000;2022-10-04T23:04:55;0.90;;;0.90;;
6259;SDS011;3163;51.516;4.000;2022-10-04T23:07:22;0.83;;;0.83;;
6259;SDS011;3163;51.516;4.000;2022-10-04T23:09:49;7.40;;;0.70;;
6259;SDS011;3163;51.516;4.000;2022-10-04T23:12:16;0.87;;;0.87;;
6259;SDS011;3163;51.516;4.000;2022-10-04T23:14:42;0.53;;;0.50;;
6259;SDS011;3163;51.516;4.000;2022-10-04T23:17:16;0.67;;;0.67;;
6259;SDS011;3163;51.516;4.000;2022-10-04T23:19:44;1.53;;;1.13;;
6259;SDS011;3163;51.516;4.000;2022-10-04T23:22:14;1.03;;;1.03;;
6259;SDS011;3163;51.516;4.000;2022-10-04T23:24:41;0.70;;;0.70;;
6259;SDS011;3163;51.516;4.000;2022-10-04T23:27:10;1.20;;;1.10;;
6259;SDS011;3163;51.516;4.000;2022-10-04T23:29:39;1.03;;;1.00;;
6259;SDS011;3163;51.516;4.000;2022-10-04T23:32:11;0.97;;;0.97;;
6259;SDS011;3163;51.516;4.000;2022-10-04T23:34:38;0.87;;;0.73;;
6259;SDS011;3163;51.516;4.000;2022-10-04T23:37:38;0.70;;;0.70;;
6259;SDS011;3163;51.516;4.000;2022-10-04T23:39:57;0.97;;;0.90;;
6259;SDS011;3163;51.516;4.000;2022-10-04T23:42:24;1.33;;;1.10;;
6259;SDS011;3163;51.516;4.000;2022-10-04T23:44:53;1.13;;;1.03;;
6259;SDS011;3163;51.516;4.000;2022-10-04T23:47:20;1.93;;;1.20;;
6259;SDS011;3163;51.516;4.000;2022-10-04T23:49:47;1.27;;;1.17;;
6259;SDS011;3163;51.516;4.000;2022-10-04T23:54:46;0.90;;;0.90;;
6259;SDS011;3163;51.516;4.000;2022-10-04T23:57:19;3.17;;;1.20;;
6259;SDS011;3163;51.516;4.000;2022-10-04T23:59:46;0.80;;;0.80;;
